»·PEaware :: N759YU KOLM-KBLI

N759YU :: KOLM-KBLI

FLIGHT INFORMATION

Flight Status: Arrived
Operator: Privately registered:
United States
More flights under this callsign
Pilot: Sky Beckons Aviation (36618)
Aircraft: CESSNA 182 SKYLANE
(C182)
More flights by this aircraft type
Origin: KOLM Olympia
United States
Destination: KBLI Bellingham Intl
United States
More flights between these airports :: More routes between these airports
Route: SECOG
File this flight plan on PilotEdge
Remarks:
Altitude:
(Current/Filed)
4,000ft
Speed:
(Current/Filed)
130kts
Departed: 04-Feb-23 01:06 PM
Arrived: 04-Feb-23 02:24 PM
Distance/Time
Traveled:
110nm/1:18
Distance/Time
To Go:
Arrived

Flight Plot

Page will automatically refresh every two minutes.

Flight plan parsing failed; only flown route is shown


Map Options




Map Legend


Flown Route
Filed Route
Departure Airport
Arrival Airport
Navaid (VOR, NDB)
Fix

Horizontal Profiles

Position Reports

Time Latitude Longitude Heading Altitude Ground
Speed
04-Feb-23 12:32 46.972495 -122.894342 246 209ft 0kts
04-Feb-23 12:33 46.972495 -122.894342 246 209ft 0kts
04-Feb-23 12:34 46.972495 -122.894342 246 209ft 0kts
04-Feb-23 12:35 46.972495 -122.894342 246 209ft 0kts
04-Feb-23 12:36 46.972495 -122.894342 246 209ft 0kts
04-Feb-23 12:37 46.972495 -122.894342 246 209ft 0kts
04-Feb-23 12:38 46.972495 -122.894342 246 209ft 0kts
04-Feb-23 12:39 46.972495 -122.894343 246 209ft 0kts
04-Feb-23 12:40 46.972494 -122.894345 246 209ft 0kts
04-Feb-23 12:41 46.972494 -122.894347 246 209ft 0kts
04-Feb-23 12:42 46.972493 -122.894349 246 209ft 0kts
04-Feb-23 12:43 46.972493 -122.894350 246 209ft 0kts
04-Feb-23 12:44 46.972492 -122.894352 246 209ft 0kts
04-Feb-23 12:45 46.972491 -122.894354 246 209ft 0kts
04-Feb-23 12:46 46.972491 -122.894356 246 209ft 0kts
04-Feb-23 12:47 46.972490 -122.894358 246 209ft 0kts
04-Feb-23 12:48 46.972490 -122.894360 246 209ft 0kts
04-Feb-23 12:49 46.972489 -122.894362 246 209ft 0kts
04-Feb-23 12:50 46.972488 -122.894364 246 209ft 0kts
04-Feb-23 12:51 46.972488 -122.894366 246 209ft 0kts
04-Feb-23 12:52 46.972487 -122.894368 246 209ft 0kts
04-Feb-23 12:53 46.972487 -122.894370 246 209ft 0kts
04-Feb-23 12:54 46.972486 -122.894372 246 209ft 0kts
04-Feb-23 12:55 46.972486 -122.894374 246 209ft 0kts
04-Feb-23 12:56 46.972485 -122.894376 246 209ft 0kts
04-Feb-23 12:57 46.972484 -122.894380 246 209ft 0kts
04-Feb-23 12:58 46.972337 -122.895952 315 209ft 7kts
04-Feb-23 12:59 46.974916 -122.899240 320 209ft 13kts
04-Feb-23 13:00 46.977660 -122.900667 321 209ft 4kts
04-Feb-23 13:01 46.977816 -122.900984 293 209ft 0kts
04-Feb-23 13:02 46.977816 -122.900985 293 209ft 0kts
04-Feb-23 13:03 46.977816 -122.900985 293 209ft 0kts
04-Feb-23 13:04 46.977642 -122.902066 199 209ft 7kts
04-Feb-23 13:05 46.960079 -122.907977 179 1111ft 68kts
04-Feb-23 13:06 46.953049 -122.883697 74 2313ft 79kts
04-Feb-23 13:07 46.960431 -122.856739 32 3294ft 77kts
04-Feb-23 13:08 46.984254 -122.860768 345 4079ft 101kts
04-Feb-23 13:09 47.015823 -122.871999 345 4085ft 120kts
04-Feb-23 13:10 47.047844 -122.883740 344 4085ft 117kts
04-Feb-23 13:11 47.080494 -122.886470 3 4085ft 117kts
04-Feb-23 13:12 47.113167 -122.882519 5 4085ft 117kts
04-Feb-23 13:13 47.145809 -122.878094 5 4085ft 117kts
04-Feb-23 13:14 47.178399 -122.873641 5 4085ft 117kts
04-Feb-23 13:15 47.211066 -122.869170 5 4085ft 117kts
04-Feb-23 13:16 47.243750 -122.864690 5 4085ft 117kts
04-Feb-23 13:17 47.276427 -122.860207 5 4085ft 117kts
04-Feb-23 13:18 47.309068 -122.855722 5 4085ft 117kts
04-Feb-23 13:19 47.341745 -122.851227 5 4085ft 117kts
04-Feb-23 13:20 47.374349 -122.846736 5 4085ft 117kts
04-Feb-23 13:21 47.406974 -122.842237 5 4085ft 118kts
04-Feb-23 13:22 47.439727 -122.837715 5 4085ft 118kts
04-Feb-23 13:23 47.472388 -122.833199 5 4085ft 118kts
04-Feb-23 13:24 47.505051 -122.828678 5 4085ft 118kts
04-Feb-23 13:25 47.537726 -122.824150 5 4085ft 118kts
04-Feb-23 13:26 47.570388 -122.819617 5 4085ft 118kts
04-Feb-23 13:27 47.603107 -122.815071 5 4085ft 118kts
04-Feb-23 13:28 47.635745 -122.810530 5 4085ft 118kts
04-Feb-23 13:29 47.668403 -122.805981 5 4085ft 118kts
04-Feb-23 13:30 47.701081 -122.801423 5 4085ft 118kts
04-Feb-23 13:31 47.733832 -122.796850 5 4085ft 118kts
04-Feb-23 13:32 47.766535 -122.792277 5 4085ft 118kts
04-Feb-23 13:33 47.799217 -122.787700 5 4085ft 118kts
04-Feb-23 13:34 47.831899 -122.783118 5 4085ft 118kts
04-Feb-23 13:35 47.864559 -122.778393 5 4085ft 118kts
04-Feb-23 13:36 47.897273 -122.773778 5 4085ft 118kts
04-Feb-23 13:37 47.929953 -122.769178 5 4085ft 118kts
04-Feb-23 13:38 47.962661 -122.764568 5 4085ft 118kts
04-Feb-23 13:39 47.995298 -122.759963 5 4085ft 118kts
04-Feb-23 13:40 48.028030 -122.755338 5 4085ft 118kts
04-Feb-23 13:41 48.060684 -122.750718 5 4085ft 118kts
04-Feb-23 13:42 48.093434 -122.746079 5 4085ft 118kts
04-Feb-23 13:43 48.126077 -122.741449 5 4085ft 118kts
04-Feb-23 13:44 48.158832 -122.736796 5 4085ft 118kts
04-Feb-23 13:45 48.191478 -122.732153 5 4085ft 118kts
04-Feb-23 13:46 48.224217 -122.727490 5 4085ft 118kts
04-Feb-23 13:47 48.256905 -122.722179 8 4085ft 118kts
04-Feb-23 13:48 48.289404 -122.715406 8 4085ft 118kts
04-Feb-23 13:49 48.321924 -122.708748 8 4085ft 118kts
04-Feb-23 13:50 48.354630 -122.703001 8 4085ft 118kts
04-Feb-23 13:51 48.383149 -122.684450 9 4089ft 118kts
04-Feb-23 13:52 48.415580 -122.676675 9 4085ft 118kts
04-Feb-23 13:53 48.448114 -122.669005 9 4085ft 118kts
04-Feb-23 13:54 48.480548 -122.661359 9 4085ft 118kts
04-Feb-23 13:55 48.513032 -122.653692 9 4085ft 118kts
04-Feb-23 13:56 48.545433 -122.646034 9 4085ft 118kts
04-Feb-23 13:57 48.577954 -122.638338 9 4085ft 118kts
04-Feb-23 13:58 48.610320 -122.630669 9 4085ft 118kts
04-Feb-23 13:59 48.642889 -122.622941 9 4085ft 118kts
04-Feb-23 14:00 48.675511 -122.615190 9 4049ft 119kts
04-Feb-23 14:01 48.708041 -122.607452 9 4048ft 118kts
04-Feb-23 14:02 48.740529 -122.599712 9 4048ft 118kts
04-Feb-23 14:03 48.773016 -122.591964 9 4048ft 118kts
04-Feb-23 14:04 48.805460 -122.584214 9 4048ft 118kts
04-Feb-23 14:05 48.838002 -122.576434 9 4048ft 118kts
04-Feb-23 14:06 48.870416 -122.568670 9 4048ft 118kts
04-Feb-23 14:07 48.902842 -122.560893 9 4049ft 118kts
04-Feb-23 14:08 48.935345 -122.553089 9 4049ft 118kts
04-Feb-23 14:09 48.967818 -122.545276 9 4048ft 118kts
04-Feb-23 14:10 49.000243 -122.537472 9 4049ft 118kts
04-Feb-23 14:11 49.029652 -122.548447 326 3737ft 123kts
04-Feb-23 14:12 49.063939 -122.550406 345 3269ft 125kts
04-Feb-23 14:13 49.057041 -122.567553 115 2817ft 116kts
04-Feb-23 14:14 49.034034 -122.544654 179 2371ft 115kts
04-Feb-23 14:15 49.002334 -122.542597 174 2041ft 108kts
04-Feb-23 14:16 48.973031 -122.538561 178 2048ft 104kts
04-Feb-23 14:17 48.943863 -122.538030 179 2048ft 104kts
04-Feb-23 14:18 48.914729 -122.537904 179 2048ft 104kts
04-Feb-23 14:19 48.888109 -122.537820 179 1886ft 93kts
04-Feb-23 14:20 48.861497 -122.537722 179 1351ft 95kts
04-Feb-23 14:21 48.836377 -122.538259 180 1034ft 80kts
04-Feb-23 14:22 48.814981 -122.537733 178 533ft 72kts
04-Feb-23 14:23 48.797597 -122.537610 180 174ft 36kts
04-Feb-23 14:24 48.793174 -122.537415 177 173ft 5kts
04-Feb-23 14:25 48.790470 -122.537304 151 173ft 7kts
04-Feb-23 14:26 48.790600 -122.536454 58 173ft 0kts

Navigation Log

Ident Type
Flight plan parsing failed, navigation log unavailable